Buoy 41609

sailwx.info

Track history (hours):
 
Tides and Currents Weather Stations Pressure Air Temp Water Temp Dewpoint Dewpoint Depression Visibility Wind Speed Wind Dir Waves Ship Positions

Drifting buoy 41609

Last reported at 2015-Feb-27 01:00 UTC. Time now 2015-Feb-27 06:06 UTC.
Position N 42°12' W 057°21'.

Date/timePositionNaut miles runAvg speedWind from/ knotsBaromVisibWave heightAir tempDewpointWater temp
2015-Feb-27 01:00N 42°12' W 057°21'3 0.5
2015-Feb-26 20:00N 42°10' W 057°24'2 0.4
2015-Feb-26 16:00N 42°09' W 057°26'1 0.9
2015-Feb-26 15:00N 42°08' W 057°27'0 0.1
2015-Feb-26 10:00N 42°08' W 057°27'1 0.6
2015-Feb-26 09:00N 42°08' W 057°27'2 1.5
2015-Feb-26 08:00N 42°08' W 057°29'0 0.0
2015-Feb-26 07:00N 42°08' W 057°29'3 3.4
2015-Feb-26 06:00N 42°10' W 057°33'0 0.0
2015-Feb-26 05:00N 42°10' W 057°33'0 0.0
2015-Feb-26 04:00N 42°10' W 057°33'1 0.4
2015-Feb-26 02:00N 42°10' W 057°33'0 0.0
2015-Feb-26 01:00N 42°10' W 057°33'0 0.4
2015-Feb-26 00:00N 42°10' W 057°33'0 0.0
2015-Feb-25 23:00N 42°10' W 057°33'0 0.0
2015-Feb-25 22:00N 42°10' W 057°33'2 1.6
2015-Feb-25 21:00N 42°08' W 057°33'1 1.5
2015-Feb-25 20:00N 42°07' W 057°32'0 0.0
2015-Feb-25 18:00N 42°07' W 057°32'1 0.9
2015-Feb-25 17:00N 42°06' W 057°33'2 0.6
2015-Feb-25 14:00N 42°05' W 057°32'0 0.0
2015-Feb-25 10:00N 42°04' W 057°32'0 0.3
2015-Feb-25 09:00N 42°04' W 057°31'2 0.8
2015-Feb-25 07:00N 42°03' W 057°32'0 0.0
2015-Feb-25 05:00N 42°03' W 057°32'0 0.0
2015-Feb-25 01:00N 42°03' W 057°32'0 0.1
2015-Feb-25 00:00N 42°03' W 057°32'0 0.2
2015-Feb-24 23:00N 42°03' W 057°32'2 0.8
2015-Feb-24 20:00N 42°04' W 057°35'0 0.0
2015-Feb-24 19:00N 42°04' W 057°35'0 0.0
2015-Feb-24 17:00N 42°04' W 057°35'1 0.4
2015-Feb-24 15:00N 42°04' W 057°36'2 1.6
2015-Feb-24 14:00N 42°05' W 057°38'1 0.1
2015-Feb-24 10:00N 42°06' W 057°38'1 0.5
2015-Feb-24 09:00N 42°06' W 057°38'1 0.7
2015-Feb-24 07:00N 42°07' W 057°39'1 0.6
2015-Feb-24 05:00N 42°07' W 057°41'0 0.0
2015-Feb-24 01:00N 42°07' W 057°41'0 0.0
2015-Feb-24 00:00N 42°07' W 057°41'1 0.6
2015-Feb-23 23:00N 42°07' W 057°41'0 0.0
2015-Feb-23 21:00N 42°07' W 057°42'1 0.6
2015-Feb-23 20:00N 42°07' W 057°42'0 0.3
2015-Feb-23 19:00N 42°07' W 057°43'1 0.6
2015-Feb-23 17:00N 42°07' W 057°44'0 0.0
2015-Feb-23 16:00N 42°07' W 057°44'4 4.4
2015-Feb-23 15:00N 42°04' W 057°48'0 0.0
2015-Feb-23 12:00N 42°04' W 057°48'0 0.0
2015-Feb-23 11:00N 42°04' W 057°48'1 0.3
2015-Feb-23 09:00N 42°04' W 057°49'1 0.3
2015-Feb-23 07:00N 42°04' W 057°49'1 1.0
2015-Feb-23 06:00N 42°03' W 057°49'1 1.0
2015-Feb-23 05:00N 42°02' W 057°50'0 0.1
2015-Feb-23 00:00N 42°02' W 057°50'1 1.3
2015-Feb-22 23:00N 42°01' W 057°51'0 0.0
2015-Feb-22 22:00N 42°01' W 057°51'1 1.0
2015-Feb-22 21:00N 41°60' W 057°52'2 2.3
2015-Feb-22 20:00N 41°57' W 057°52'0 0.0
2015-Feb-22 19:00N 41°57' W 057°52'0 0.0
2015-Feb-22 17:00N 41°57' W 057°52'2 0.7
2015-Feb-22 14:00N 41°55' W 057°52'1 0.7
2015-Feb-22 12:00N 41°54' W 057°51'0 0.0
2015-Feb-22 11:00N 41°54' W 057°51'0 0.4
2015-Feb-22 10:00N 41°54' W 057°51'1 0.9
2015-Feb-22 09:00N 41°54' W 057°50'0 0.2
2015-Feb-22 07:00N 41°54' W 057°50'0 0.1
2015-Feb-22 06:00N 41°54' W 057°50'1 0.3
2015-Feb-22 02:00N 41°54' W 057°51'0 0.4
2015-Feb-22 01:00N 41°55' W 057°51'0 0.1
2015-Feb-22 00:00N 41°55' W 057°51'1 0.8
2015-Feb-21 23:00N 41°54' W 057°51'0 0.0
2015-Feb-21 22:00N 41°54' W 057°51'0 0.0
2015-Feb-21 21:00N 41°54' W 057°51'3 0.3
2015-Feb-21 11:00N 41°57' W 057°51'0 0.1
2015-Feb-21 09:00N 41°57' W 057°51'1 0.2
2015-Feb-21 06:00N 41°58' W 057°51'1 0.7
2015-Feb-21 05:00N 41°57' W 057°52'1 0.2
2015-Feb-21 00:00N 41°58' W 057°51'1 0.4
2015-Feb-20 21:00N 41°57' W 057°52'1 0.8
2015-Feb-20 20:00N 41°57' W 057°53'0 0.3
2015-Feb-20 19:00N 41°57' W 057°53'0 0.0
2015-Feb-20 18:00N 41°57' W 057°53'1 0.3
2015-Feb-20 16:00N 41°57' W 057°54'0 0.1
2015-Feb-20 14:00N 41°57' W 057°54'2 0.3
2015-Feb-20 08:00N 41°56' W 057°56'0 0.0
2015-Feb-20 07:00N 41°56' W 057°56'2 2.0
2015-Feb-20 06:00N 41°54' W 057°54'0 0.0
2015-Feb-20 02:00N 41°54' W 057°54'0 0.0
2015-Feb-20 01:00N 41°54' W 057°54'0 0.3
2015-Feb-20 00:00N 41°55' W 057°54'1 0.2
2015-Feb-19 21:00N 41°54' W 057°54'3 0.6
2015-Feb-19 17:00N 41°53' W 057°57'0 0.0
2015-Feb-19 16:00N 41°53' W 057°57'1 1.1
2015-Feb-19 15:00N 41°52' W 057°57'0 0.0
2015-Feb-19 14:00N 41°52' W 057°57'4 0.7
2015-Feb-19 08:00N 41°50' W 057°52'2 0.2
2015-Feb-18 23:00N 41°49' W 057°54'3 1.0
2015-Feb-18 20:00N 41°46' W 057°55'4 1.0
2015-Feb-18 16:00N 41°43' W 057°51'5 2.6
2015-Feb-18 14:00N 41°45' W 057°45'0 0.0
2015-Feb-18 13:00N 41°45' W 057°45'0 0.0
2015-Feb-18 12:00N 41°45' W 057°45'0 0.2
2015-Feb-18 10:00N 41°46' W 057°45'2 1.0
2015-Feb-18 08:00N 41°45' W 057°48'7 3.4
2015-Feb-18 06:00N 41°38' W 057°50'0 0.0
2015-Feb-18 01:00N 41°38' W 057°50'2 2.2
2015-Feb-18 00:00N 41°36' W 057°49'3 1.3
2015-Feb-17 22:00N 41°35' W 057°46'1 0.3
2015-Feb-17 20:00N 41°35' W 057°46'0 0.1
2015-Feb-17 18:00N 41°35' W 057°46'1 0.3
2015-Feb-17 16:00N 41°35' W 057°47'4 1.3
2015-Feb-17 13:00N 41°32' W 057°50'1 0.3
2015-Feb-17 10:00N 41°31' W 057°51'0 0.1
2015-Feb-17 09:00N 41°31' W 057°51'0 0.3
2015-Feb-17 08:00N 41°31' W 057°51'1 1.1
2015-Feb-17 07:00N 41°31' W 057°52'1 0.6
2015-Feb-17 06:00N 41°31' W 057°53'0 0.0
2015-Feb-17 05:00N 41°31' W 057°53'  
Track history (hours):
 
Tides and Currents Weather Stations Pressure Air Temp Water Temp Dewpoint Dewpoint Depression Visibility Wind Speed Wind Dir Waves Ship Positions

Drifting buoy 41609

Last reported at 2015-Feb-27 01:00 UTC. Time now 2015-Feb-27 06:06 UTC.
Position N 42°12' W 057°21'.

Date/timePositionNaut miles runAvg speedWind from/ knotsBaromVisibWave heightAir tempDewpointWater temp
2015-Feb-27 01:00N 42°12' W 057°21'3 0.5
2015-Feb-26 20:00N 42°10' W 057°24'2 0.4
2015-Feb-26 16:00N 42°09' W 057°26'1 0.9
2015-Feb-26 15:00N 42°08' W 057°27'0 0.1
2015-Feb-26 10:00N 42°08' W 057°27'1 0.6
2015-Feb-26 09:00N 42°08' W 057°27'2 1.5
2015-Feb-26 08:00N 42°08' W 057°29'0 0.0
2015-Feb-26 07:00N 42°08' W 057°29'3 3.4
2015-Feb-26 06:00N 42°10' W 057°33'0 0.0
2015-Feb-26 05:00N 42°10' W 057°33'0 0.0
2015-Feb-26 04:00N 42°10' W 057°33'1 0.4
2015-Feb-26 02:00N 42°10' W 057°33'0 0.0
2015-Feb-26 01:00N 42°10' W 057°33'0 0.4
2015-Feb-26 00:00N 42°10' W 057°33'0 0.0
2015-Feb-25 23:00N 42°10' W 057°33'0 0.0
2015-Feb-25 22:00N 42°10' W 057°33'2 1.6
2015-Feb-25 21:00N 42°08' W 057°33'1 1.5
2015-Feb-25 20:00N 42°07' W 057°32'0 0.0
2015-Feb-25 18:00N 42°07' W 057°32'1 0.9
2015-Feb-25 17:00N 42°06' W 057°33'2 0.6
2015-Feb-25 14:00N 42°05' W 057°32'0 0.0
2015-Feb-25 10:00N 42°04' W 057°32'0 0.3
2015-Feb-25 09:00N 42°04' W 057°31'2 0.8
2015-Feb-25 07:00N 42°03' W 057°32'0 0.0
2015-Feb-25 05:00N 42°03' W 057°32'0 0.0
2015-Feb-25 01:00N 42°03' W 057°32'0 0.1
2015-Feb-25 00:00N 42°03' W 057°32'0 0.2
2015-Feb-24 23:00N 42°03' W 057°32'2 0.8
2015-Feb-24 20:00N 42°04' W 057°35'0 0.0
2015-Feb-24 19:00N 42°04' W 057°35'0 0.0
2015-Feb-24 17:00N 42°04' W 057°35'1 0.4
2015-Feb-24 15:00N 42°04' W 057°36'2 1.6
2015-Feb-24 14:00N 42°05' W 057°38'1 0.1
2015-Feb-24 10:00N 42°06' W 057°38'1 0.5
2015-Feb-24 09:00N 42°06' W 057°38'1 0.7
2015-Feb-24 07:00N 42°07' W 057°39'1 0.6
2015-Feb-24 05:00N 42°07' W 057°41'0 0.0
2015-Feb-24 01:00N 42°07' W 057°41'0 0.0
2015-Feb-24 00:00N 42°07' W 057°41'1 0.6
2015-Feb-23 23:00N 42°07' W 057°41'0 0.0
2015-Feb-23 21:00N 42°07' W 057°42'1 0.6
2015-Feb-23 20:00N 42°07' W 057°42'0 0.3
2015-Feb-23 19:00N 42°07' W 057°43'1 0.6
2015-Feb-23 17:00N 42°07' W 057°44'0 0.0
2015-Feb-23 16:00N 42°07' W 057°44'4 4.4
2015-Feb-23 15:00N 42°04' W 057°48'0 0.0
2015-Feb-23 12:00N 42°04' W 057°48'0 0.0
2015-Feb-23 11:00N 42°04' W 057°48'1 0.3
2015-Feb-23 09:00N 42°04' W 057°49'1 0.3
2015-Feb-23 07:00N 42°04' W 057°49'1 1.0
2015-Feb-23 06:00N 42°03' W 057°49'1 1.0
2015-Feb-23 05:00N 42°02' W 057°50'0 0.1
2015-Feb-23 00:00N 42°02' W 057°50'1 1.3
2015-Feb-22 23:00N 42°01' W 057°51'0 0.0
2015-Feb-22 22:00N 42°01' W 057°51'1 1.0
2015-Feb-22 21:00N 41°60' W 057°52'2 2.3
2015-Feb-22 20:00N 41°57' W 057°52'0 0.0
2015-Feb-22 19:00N 41°57' W 057°52'0 0.0
2015-Feb-22 17:00N 41°57' W 057°52'2 0.7
2015-Feb-22 14:00N 41°55' W 057°52'1 0.7
2015-Feb-22 12:00N 41°54' W 057°51'0 0.0
2015-Feb-22 11:00N 41°54' W 057°51'0 0.4
2015-Feb-22 10:00N 41°54' W 057°51'1 0.9
2015-Feb-22 09:00N 41°54' W 057°50'0 0.2
2015-Feb-22 07:00N 41°54' W 057°50'0 0.1
2015-Feb-22 06:00N 41°54' W 057°50'1 0.3
2015-Feb-22 02:00N 41°54' W 057°51'0 0.4
2015-Feb-22 01:00N 41°55' W 057°51'0 0.1
2015-Feb-22 00:00N 41°55' W 057°51'1 0.8
2015-Feb-21 23:00N 41°54' W 057°51'0 0.0
2015-Feb-21 22:00N 41°54' W 057°51'0 0.0
2015-Feb-21 21:00N 41°54' W 057°51'3 0.3
2015-Feb-21 11:00N 41°57' W 057°51'0 0.1
2015-Feb-21 09:00N 41°57' W 057°51'1 0.2
2015-Feb-21 06:00N 41°58' W 057°51'1 0.7
2015-Feb-21 05:00N 41°57' W 057°52'1 0.2
2015-Feb-21 00:00N 41°58' W 057°51'1 0.4
2015-Feb-20 21:00N 41°57' W 057°52'1 0.8
2015-Feb-20 20:00N 41°57' W 057°53'0 0.3
2015-Feb-20 19:00N 41°57' W 057°53'0 0.0
2015-Feb-20 18:00N 41°57' W 057°53'1 0.3
2015-Feb-20 16:00N 41°57' W 057°54'0 0.1
2015-Feb-20 14:00N 41°57' W 057°54'2 0.3
2015-Feb-20 08:00N 41°56' W 057°56'0 0.0
2015-Feb-20 07:00N 41°56' W 057°56'2 2.0
2015-Feb-20 06:00N 41°54' W 057°54'0 0.0
2015-Feb-20 02:00N 41°54' W 057°54'0 0.0
2015-Feb-20 01:00N 41°54' W 057°54'0 0.3
2015-Feb-20 00:00N 41°55' W 057°54'1 0.2
2015-Feb-19 21:00N 41°54' W 057°54'3 0.6
2015-Feb-19 17:00N 41°53' W 057°57'0 0.0
2015-Feb-19 16:00N 41°53' W 057°57'1 1.1
2015-Feb-19 15:00N 41°52' W 057°57'0 0.0
2015-Feb-19 14:00N 41°52' W 057°57'4 0.7
2015-Feb-19 08:00N 41°50' W 057°52'2 0.2
2015-Feb-18 23:00N 41°49' W 057°54'3 1.0
2015-Feb-18 20:00N 41°46' W 057°55'4 1.0
2015-Feb-18 16:00N 41°43' W 057°51'5 2.6
2015-Feb-18 14:00N 41°45' W 057°45'0 0.0
2015-Feb-18 13:00N 41°45' W 057°45'0 0.0
2015-Feb-18 12:00N 41°45' W 057°45'0 0.2
2015-Feb-18 10:00N 41°46' W 057°45'2 1.0
2015-Feb-18 08:00N 41°45' W 057°48'7 3.4
2015-Feb-18 06:00N 41°38' W 057°50'0 0.0
2015-Feb-18 01:00N 41°38' W 057°50'2 2.2
2015-Feb-18 00:00N 41°36' W 057°49'3 1.3
2015-Feb-17 22:00N 41°35' W 057°46'1 0.3
2015-Feb-17 20:00N 41°35' W 057°46'0 0.1
2015-Feb-17 18:00N 41°35' W 057°46'1 0.3
2015-Feb-17 16:00N 41°35' W 057°47'4 1.3
2015-Feb-17 13:00N 41°32' W 057°50'1 0.3
2015-Feb-17 10:00N 41°31' W 057°51'0 0.1
2015-Feb-17 09:00N 41°31' W 057°51'0 0.3
2015-Feb-17 08:00N 41°31' W 057°51'1 1.1
2015-Feb-17 07:00N 41°31' W 057°52'1 0.6
2015-Feb-17 06:00N 41°31' W 057°53'0 0.0
2015-Feb-17 05:00N 41°31' W 057°53'  

Dump ship's entire track history